createdAt,value
2018-03-23T00:00:20.781Z,97347.94
2018-03-23T00:01:26.464Z,97342.78
2018-03-23T00:02:31.902Z,97348.69
2018-03-23T00:03:37.394Z,97345.78
2018-03-23T00:04:42.868Z,97342.33
2018-03-23T00:05:48.366Z,97343.92
2018-03-23T00:06:53.969Z,97347.53
2018-03-23T00:07:59.735Z,97345.57
2018-03-23T00:09:05.487Z,97342.50
2018-03-23T00:10:10.704Z,97348.78
2018-03-23T00:11:16.036Z,97346.98
2018-03-23T00:12:21.396Z,97340.91
2018-03-23T00:13:26.683Z,97342.34
2018-03-23T00:14:32.271Z,97345.80
2018-03-23T00:15:37.534Z,97343.84
2018-03-23T00:16:42.938Z,97339.46
2018-03-23T00:17:48.432Z,97334.52
2018-03-23T00:18:53.849Z,97334.67
2018-03-23T00:19:59.400Z,97330.16
2018-03-23T00:21:05.251Z,97337.59
2018-03-23T00:22:10.632Z,97331.84
2018-03-23T00:23:16.338Z,97332.38
2018-03-23T00:24:21.727Z,97333.90
2018-03-23T00:25:27.143Z,97334.52
2018-03-23T00:26:32.613Z,97328.80
2018-03-23T00:27:38.409Z,97330.42
2018-03-23T00:28:43.857Z,97330.39
2018-03-23T00:29:49.202Z,97327.96
2018-03-23T00:30:54.670Z,97331.66
2018-03-23T00:32:00.002Z,97328.77
2018-03-23T00:33:05.306Z,97329.14
2018-03-23T00:34:10.893Z,97325.69
2018-03-23T00:35:16.230Z,97325.23
2018-03-23T00:36:21.570Z,97324.82
2018-03-23T00:37:26.877Z,97323.95
2018-03-23T00:38:32.233Z,97318.76
2018-03-23T00:39:37.698Z,97330.10
2018-03-23T00:40:43.304Z,97326.28
2018-03-23T00:41:48.650Z,97328.42
2018-03-23T00:42:54.526Z,97324.69
2018-03-23T00:44:00.093Z,97327.87
2018-03-23T00:45:05.638Z,97322.45
2018-03-23T00:46:11.103Z,97320.28
2018-03-23T00:47:16.813Z,97320.47
2018-03-23T00:48:22.089Z,97311.77
2018-03-23T00:49:27.390Z,97317.67
2018-03-23T00:50:33.374Z,97315.09
2018-03-23T00:51:39.126Z,97310.27
2018-03-23T00:52:44.482Z,97315.72
2018-03-23T00:53:50.453Z,97312.05
2018-03-23T00:54:56.050Z,97317.39
2018-03-23T00:56:01.467Z,97314.75
2018-03-23T00:57:06.922Z,97311.55
2018-03-23T00:58:12.522Z,97316.70
2018-03-23T00:59:18.130Z,97318.61
2018-03-23T01:00:24.551Z,97315.69
2018-03-23T01:01:30.354Z,97313.66
2018-03-23T01:02:35.796Z,97312.67
2018-03-23T01:03:41.830Z,97307.94
2018-03-23T01:04:47.692Z,97314.88
2018-03-23T01:05:53.095Z,97318.58
2018-03-23T01:06:58.958Z,97316.55
2018-03-23T01:08:04.516Z,97319.88
2018-03-23T01:09:10.164Z,97315.09
2018-03-23T01:10:15.936Z,97320.68
2018-03-23T01:11:21.204Z,97317.14
2018-03-23T01:12:26.614Z,97321.46
2018-03-23T01:13:32.311Z,97319.63
2018-03-23T01:14:38.019Z,97312.69
2018-03-23T01:15:43.520Z,97312.66
2018-03-23T01:16:49.800Z,97316.48
2018-03-23T01:17:55.378Z,97314.27
2018-03-23T01:19:01.348Z,97316.66
2018-03-23T01:20:06.868Z,97313.62
2018-03-23T01:21:12.538Z,97312.09
2018-03-23T01:22:18.535Z,97323.23
2018-03-23T01:23:24.107Z,97311.41
2018-03-23T01:24:29.635Z,97317.20
2018-03-23T01:25:35.703Z,97318.03
2018-03-23T01:26:41.236Z,97314.61
2018-03-23T01:27:46.803Z,97308.98
2018-03-23T01:28:52.359Z,97305.21
2018-03-23T01:29:57.853Z,97304.70
2018-03-23T01:31:03.355Z,97303.08
2018-03-23T01:32:09.225Z,97303.55
2018-03-23T01:33:15.252Z,97303.27
2018-03-23T01:34:21.390Z,97304.70
2018-03-23T01:35:26.865Z,97300.12
2018-03-23T01:36:32.136Z,97299.44
2018-03-23T01:37:37.873Z,97296.02
2018-03-23T01:38:43.651Z,97296.21
2018-03-23T01:39:49.045Z,97297.42
2018-03-23T01:40:54.661Z,97290.84
2018-03-23T01:41:59.853Z,97287.94
2018-03-23T01:43:05.219Z,97288.59
2018-03-23T01:44:10.904Z,97282.66
2018-03-23T01:45:17.644Z,97283.20
2018-03-23T01:46:22.940Z,97280.96
2018-03-23T01:47:28.520Z,97285.84
2018-03-23T01:48:34.008Z,97287.48
2018-03-23T01:49:39.763Z,97288.97
2018-03-23T01:50:45.481Z,97290.31
2018-03-23T01:51:51.528Z,97282.79
2018-03-23T01:52:57.261Z,97285.31
2018-03-23T01:54:02.934Z,97283.62
2018-03-23T01:55:08.645Z,97277.64
2018-03-23T01:56:14.451Z,97280.93
2018-03-23T01:57:20.538Z,97275.86
2018-03-23T01:58:26.893Z,97271.75
2018-03-23T01:59:32.289Z,97276.77
2018-03-23T02:00:37.862Z,97277.27
2018-03-23T02:01:43.426Z,97275.48
2018-03-23T02:02:48.986Z,97272.26
2018-03-23T02:03:54.730Z,97269.78
2018-03-23T02:05:01.150Z,97269.35
2018-03-23T02:06:06.688Z,97268.88
2018-03-23T02:07:13.130Z,97265.78
2018-03-23T02:08:19.128Z,97262.83
2018-03-23T02:09:24.702Z,97268.88
2018-03-23T02:10:30.291Z,97267.95
2018-03-23T02:11:36.221Z,97265.00
2018-03-23T02:12:41.902Z,97270.25
2018-03-23T02:13:47.419Z,97263.59
2018-03-23T02:14:52.850Z,97257.08
2018-03-23T02:15:58.290Z,97258.48
2018-03-23T02:17:04.136Z,97262.45
2018-03-23T02:18:10.145Z,97257.73
2018-03-23T02:19:15.684Z,97254.64
2018-03-23T02:20:21.443Z,97253.98
2018-03-23T02:21:27.772Z,97253.23
2018-03-23T02:22:33.458Z,97252.94
2018-03-23T02:23:39.232Z,97261.50
2018-03-23T02:24:45.406Z,97254.23
2018-03-23T02:25:50.977Z,97255.33
2018-03-23T02:26:56.566Z,97251.92
2018-03-23T02:28:02.017Z,97252.33
2018-03-23T02:29:07.702Z,97254.48
2018-03-23T02:30:13.422Z,97249.06
2018-03-23T02:31:19.172Z,97247.20
2018-03-23T02:32:24.500Z,97243.96
2018-03-23T02:33:30.087Z,97244.31
2018-03-23T02:34:36.824Z,97250.56
2018-03-23T02:35:42.396Z,97247.42
2018-03-23T02:36:48.319Z,97244.40
2018-03-23T02:37:54.125Z,97246.40
2018-03-23T02:38:59.654Z,97246.47
2018-03-23T02:40:04.947Z,97246.03
2018-03-23T02:41:10.369Z,97242.45
2018-03-23T02:42:15.731Z,97246.64
2018-03-23T02:43:21.459Z,97242.48
2018-03-23T02:44:28.172Z,97243.08
2018-03-23T02:45:33.721Z,97246.00
2018-03-23T02:46:39.229Z,97247.09
2018-03-23T02:47:44.410Z,97244.17
2018-03-23T02:48:49.630Z,97237.95
2018-03-23T02:49:55.224Z,97238.23
2018-03-23T02:51:00.845Z,97238.30
2018-03-23T02:52:06.003Z,97241.09
2018-03-23T02:53:11.546Z,97237.63
2018-03-23T02:54:17.208Z,97240.19
2018-03-23T02:55:22.811Z,97233.53
2018-03-23T02:56:28.214Z,97232.17
2018-03-23T02:57:33.839Z,97239.44
2018-03-23T02:58:39.214Z,97233.53
2018-03-23T02:59:44.460Z,97230.83
2018-03-23T03:00:49.831Z,97230.90
2018-03-23T03:01:55.274Z,97231.72
2018-03-23T03:03:00.558Z,97232.72
2018-03-23T03:04:06.387Z,97230.14
2018-03-23T03:05:11.543Z,97226.47
2018-03-23T03:06:16.865Z,97230.23
2018-03-23T03:07:22.679Z,97223.69
2018-03-23T03:08:28.125Z,97218.80
2018-03-23T03:09:33.352Z,97221.26
2018-03-23T03:10:39.246Z,97221.06
2018-03-23T03:11:44.492Z,97219.63
2018-03-23T03:12:49.991Z,97218.45
2018-03-23T03:13:55.718Z,97217.45
2018-03-23T03:15:00.719Z,97212.98
2018-03-23T03:16:06.066Z,97214.25
2018-03-23T03:17:11.386Z,97216.93
2018-03-23T03:18:19.611Z,97219.35
2018-03-23T03:19:24.732Z,97212.92
2018-03-23T03:20:30.002Z,97211.31
2018-03-23T03:21:35.202Z,97211.28
2018-03-23T03:22:40.484Z,97208.12
2018-03-23T03:23:46.442Z,97209.00
2018-03-23T03:24:51.687Z,97213.13
2018-03-23T03:25:56.981Z,97212.16
2018-03-23T03:27:02.266Z,97214.11
2018-03-23T03:28:07.554Z,97214.48
2018-03-23T03:29:12.818Z,97214.78
2018-03-23T03:30:18.339Z,97209.66
2018-03-23T03:31:23.415Z,97215.25
2018-03-23T03:32:28.783Z,97212.31
2018-03-23T03:33:34.110Z,97210.70
2018-03-23T03:34:40.036Z,97214.40
2018-03-23T03:35:45.306Z,97213.63
2018-03-23T03:36:51.047Z,97210.84
2018-03-23T03:37:57.922Z,97207.65
2018-03-23T03:39:02.854Z,97204.33
2018-03-23T03:40:08.078Z,97211.37
2018-03-23T03:41:13.967Z,97207.86
2018-03-23T03:42:19.393Z,97205.91
2018-03-23T03:43:25.191Z,97203.61
2018-03-23T03:44:30.643Z,97204.83
2018-03-23T03:45:35.863Z,97200.16
2018-03-23T03:46:41.289Z,97201.50
2018-03-23T03:47:46.472Z,97200.83
2018-03-23T03:48:51.949Z,97199.52
2018-03-23T03:49:57.842Z,97188.51
2018-03-23T03:51:03.374Z,97200.36
2018-03-23T03:52:08.569Z,97194.48
2018-03-23T03:53:13.533Z,97201.88
2018-03-23T03:54:18.816Z,97191.16
2018-03-23T03:55:23.799Z,97192.34
2018-03-23T03:56:29.445Z,97199.56
2018-03-23T03:57:34.712Z,97194.34
2018-03-23T03:58:39.744Z,97196.20
2018-03-23T03:59:45.035Z,97194.72
2018-03-23T04:00:50.182Z,97194.25
2018-03-23T04:01:55.330Z,97194.21
2018-03-23T04:03:00.804Z,97189.61
2018-03-23T04:04:06.451Z,97194.69
2018-03-23T04:05:11.760Z,97196.55
2018-03-23T04:06:16.958Z,97189.13
2018-03-23T04:07:22.097Z,97191.03
2018-03-23T04:08:27.059Z,97190.56
2018-03-23T04:09:32.657Z,97187.42
2018-03-23T04:10:37.526Z,97192.48
2018-03-23T04:11:42.675Z,97191.18
2018-03-23T04:12:47.785Z,97189.50
2018-03-23T04:13:52.643Z,97185.88
2018-03-23T04:14:57.901Z,97187.14
2018-03-23T04:16:03.355Z,97186.27
2018-03-23T04:17:08.249Z,97188.94
2018-03-23T04:18:13.208Z,97189.23
2018-03-23T04:19:18.219Z,97188.95
2018-03-23T04:20:23.290Z,97185.59
2018-03-23T04:21:28.439Z,97180.92
2018-03-23T04:22:33.879Z,97181.93
2018-03-23T04:23:39.724Z,97185.09
2018-03-23T04:24:44.543Z,97184.97
2018-03-23T04:25:49.497Z,97179.25
2018-03-23T04:26:54.159Z,97180.89
2018-03-23T04:27:58.849Z,97176.42
2018-03-23T04:29:03.958Z,97178.03
2018-03-23T04:30:08.908Z,97173.37
2018-03-23T04:31:14.042Z,97173.00
2018-03-23T04:32:19.271Z,97178.41
2018-03-23T04:33:24.493Z,97177.36
2018-03-23T04:34:29.478Z,97179.04
2018-03-23T04:35:35.221Z,97171.98
2018-03-23T04:36:40.471Z,97174.44
2018-03-23T04:37:45.894Z,97170.17
2018-03-23T04:38:50.773Z,97169.41
2018-03-23T04:39:56.129Z,97165.70
2018-03-23T04:41:01.561Z,97165.64
2018-03-23T04:42:07.146Z,97163.66
2018-03-23T04:43:12.290Z,97160.33
2018-03-23T04:44:17.205Z,97161.11
2018-03-23T04:45:22.529Z,97158.59
2018-03-23T04:46:27.522Z,97158.09
2018-03-23T04:47:32.805Z,97159.33
2018-03-23T04:48:38.717Z,97158.05
2018-03-23T04:49:43.869Z,97158.09
2018-03-23T04:50:48.987Z,97159.05
2018-03-23T04:51:54.116Z,97154.39
2018-03-23T04:52:59.042Z,97157.68
2018-03-23T04:54:05.690Z,97155.09
2018-03-23T04:55:11.236Z,97156.03
2018-03-23T04:56:16.339Z,97152.23
2018-03-23T04:57:21.552Z,97150.89
2018-03-23T04:58:26.733Z,97150.52
2018-03-23T04:59:31.822Z,97151.73
2018-03-23T05:00:36.917Z,97146.33
2018-03-23T05:01:42.742Z,97145.98
2018-03-23T05:02:47.962Z,97147.91
2018-03-23T05:03:53.386Z,97145.25
2018-03-23T05:04:58.456Z,97143.60
2018-03-23T05:06:03.998Z,97142.89
2018-03-23T05:07:09.408Z,97143.80
2018-03-23T05:08:15.458Z,97137.18
2018-03-23T05:09:20.815Z,97137.95
2018-03-23T05:10:26.472Z,97141.63
2018-03-23T05:11:31.689Z,97138.56
2018-03-23T05:12:37.954Z,97139.03
2018-03-23T05:13:43.347Z,97137.22
2018-03-23T05:14:49.429Z,97136.58
2018-03-23T05:15:54.824Z,97138.36
2018-03-23T05:17:00.161Z,97137.39
2018-03-23T05:18:05.464Z,97136.92
2018-03-23T05:19:10.627Z,97131.00
2018-03-23T05:20:16.097Z,97136.52
2018-03-23T05:21:21.688Z,97130.91
2018-03-23T05:22:27.306Z,97130.03
2018-03-23T05:23:32.570Z,97133.19
2018-03-23T05:24:38.127Z,97131.31
2018-03-23T05:25:43.728Z,97129.33
2018-03-23T05:26:49.256Z,97128.65
2018-03-23T05:27:55.343Z,97125.70
2018-03-23T05:29:02.310Z,97123.95
2018-03-23T05:30:07.788Z,97126.27
2018-03-23T05:31:13.374Z,97124.09
2018-03-23T05:32:19.236Z,97123.34
2018-03-23T05:33:24.782Z,97123.38
2018-03-23T05:34:30.785Z,97121.91
2018-03-23T05:35:36.343Z,97123.78
2018-03-23T05:36:41.682Z,97119.75
2018-03-23T05:37:47.092Z,97122.10
2018-03-23T05:38:52.359Z,97124.05
2018-03-23T05:39:58.369Z,97121.46
2018-03-23T05:41:04.555Z,97122.03
2018-03-23T05:42:10.580Z,97122.44
2018-03-23T05:43:16.334Z,97120.25
2018-03-23T05:44:22.149Z,97123.58
2018-03-23T05:45:28.006Z,97123.02
2018-03-23T05:46:34.438Z,97128.11
2018-03-23T05:47:39.853Z,97121.33
2018-03-23T05:48:45.648Z,97129.09
2018-03-23T05:49:51.274Z,97128.55
2018-03-23T05:50:56.907Z,97128.38
2018-03-23T05:52:02.664Z,97128.12
2018-03-23T05:53:08.727Z,97131.08
2018-03-23T05:54:14.440Z,97125.90
2018-03-23T05:55:20.051Z,97123.05
2018-03-23T05:56:25.795Z,97127.61
2018-03-23T05:57:31.460Z,97124.31
2018-03-23T05:58:37.259Z,97123.01
2018-03-23T05:59:42.899Z,97129.49
2018-03-23T06:00:48.430Z,97123.64
2018-03-23T06:01:54.286Z,97128.72
2018-03-23T06:03:01.430Z,97126.13
2018-03-23T06:04:07.150Z,97123.40
2018-03-23T06:05:13.899Z,97126.99
2018-03-23T06:06:19.513Z,97115.91
2018-03-23T06:07:26.015Z,97123.64
2018-03-23T06:08:31.584Z,97120.39
2018-03-23T06:09:37.515Z,97117.53
2018-03-23T06:10:43.148Z,97117.93
2018-03-23T06:11:49.034Z,97119.61
2018-03-23T06:12:54.768Z,97119.67
2018-03-23T06:14:00.235Z,97118.73
2018-03-23T06:15:06.028Z,97116.31
2018-03-23T06:16:11.494Z,97117.02
2018-03-23T06:17:17.136Z,97114.19
2018-03-23T06:18:23.545Z,97119.49
2018-03-23T06:19:29.809Z,97119.21
2018-03-23T06:20:35.474Z,97118.23
2018-03-23T06:21:41.113Z,97117.15
2018-03-23T06:22:47.432Z,97114.34
2018-03-23T06:23:53.818Z,97113.45
2018-03-23T06:24:59.875Z,97118.89
2018-03-23T06:26:05.557Z,97118.63
2018-03-23T06:27:11.415Z,97116.84
2018-03-23T06:28:17.354Z,97113.45
2018-03-23T06:29:22.945Z,97115.17
2018-03-23T06:30:28.398Z,97120.62
2018-03-23T06:31:34.236Z,97115.08
2018-03-23T06:32:39.892Z,97119.87
2018-03-23T06:33:45.704Z,97115.27
2018-03-23T06:34:51.452Z,97115.20
2018-03-23T06:35:57.273Z,97113.23
2018-03-23T06:37:03.019Z,97110.23
2018-03-23T06:38:08.831Z,97105.25
2018-03-23T06:39:14.425Z,97109.02
2018-03-23T06:40:19.943Z,97108.48
2018-03-23T06:41:25.877Z,97110.42
2018-03-23T06:42:32.190Z,97107.25
2018-03-23T06:43:37.937Z,97113.16
2018-03-23T06:44:43.766Z,97114.34
2018-03-23T06:45:49.348Z,97113.60
2018-03-23T06:46:55.209Z,97108.33
2018-03-23T06:48:00.804Z,97110.88
2018-03-23T06:49:06.624Z,97112.33
2018-03-23T06:50:12.079Z,97102.78
2018-03-23T06:51:17.765Z,97105.94
2018-03-23T06:52:23.563Z,97111.62
2018-03-23T06:53:29.080Z,97107.98
2018-03-23T06:54:35.504Z,97103.95
2018-03-23T06:55:41.305Z,97110.81
2018-03-23T06:56:47.129Z,97104.63
2018-03-23T06:57:53.458Z,97109.03
2018-03-23T06:58:59.283Z,97101.64
2018-03-23T07:00:04.755Z,97105.54
2018-03-23T07:01:10.353Z,97103.86
2018-03-23T07:02:16.088Z,97108.46
2018-03-23T07:03:21.687Z,97113.03
2018-03-23T07:04:27.590Z,97105.53
2018-03-23T07:05:33.052Z,97107.41
2018-03-23T07:06:38.689Z,97113.13
2018-03-23T07:07:44.119Z,97115.75
2018-03-23T07:08:50.583Z,97113.60
2018-03-23T07:09:56.154Z,97109.67
2018-03-23T07:11:02.317Z,97107.78
2018-03-23T07:12:07.816Z,97109.94
2018-03-23T07:13:13.006Z,97107.78
2018-03-23T07:14:19.391Z,97108.70
2018-03-23T07:15:24.911Z,97107.89
2018-03-23T07:16:30.872Z,97111.05
2018-03-23T07:17:36.722Z,97106.84
2018-03-23T07:18:42.521Z,97101.27
2018-03-23T07:19:48.104Z,97104.16
2018-03-23T07:20:53.455Z,97108.97
2018-03-23T07:21:58.998Z,97100.53
2018-03-23T07:23:05.163Z,97105.60
2018-03-23T07:24:10.821Z,97099.42
2018-03-23T07:25:16.294Z,97102.92
2018-03-23T07:26:21.711Z,97102.52
2018-03-23T07:27:27.205Z,97101.77
2018-03-23T07:28:32.737Z,97091.16
2018-03-23T07:29:38.730Z,97096.77
2018-03-23T07:30:44.149Z,97102.55
2018-03-23T07:31:49.635Z,97093.61
2018-03-23T07:32:54.936Z,97108.02
2018-03-23T07:34:00.350Z,97098.28
2018-03-23T07:35:06.370Z,97098.41
2018-03-23T07:36:12.774Z,97099.09
2018-03-23T07:37:18.389Z,97087.96
2018-03-23T07:38:24.003Z,97094.69
2018-03-23T07:39:29.393Z,97096.27
2018-03-23T07:40:36.495Z,97089.61
2018-03-23T07:41:42.491Z,97093.64
2018-03-23T07:42:48.096Z,97092.44
2018-03-23T07:43:54.129Z,97094.25
2018-03-23T07:45:00.274Z,97080.34
2018-03-23T07:46:06.005Z,97089.87
2018-03-23T07:47:11.425Z,97098.69
2018-03-23T07:48:17.255Z,97091.02
2018-03-23T07:49:22.894Z,97089.17
2018-03-23T07:50:28.272Z,97087.75
2018-03-23T07:51:33.763Z,97089.44
2018-03-23T07:52:39.230Z,97085.71
2018-03-23T07:53:44.851Z,97090.34
2018-03-23T07:54:50.634Z,97085.83
2018-03-23T07:55:56.117Z,97088.73
2018-03-23T07:57:01.708Z,97088.69
2018-03-23T07:58:07.187Z,97090.98
2018-03-23T07:59:12.615Z,97094.44
2018-03-23T08:00:18.312Z,97093.20
2018-03-23T08:01:24.206Z,97098.81
2018-03-23T08:02:29.795Z,97091.85
2018-03-23T08:03:35.481Z,97096.52
2018-03-23T08:04:41.209Z,97094.03
2018-03-23T08:05:46.818Z,97098.77
2018-03-23T08:06:52.168Z,97082.72
2018-03-23T08:07:58.181Z,97096.59
2018-03-23T08:09:03.765Z,97095.55
2018-03-23T08:10:09.285Z,97095.59
2018-03-23T08:11:14.620Z,97097.47
2018-03-23T08:12:20.200Z,97094.95
2018-03-23T08:13:26.046Z,97091.89
2018-03-23T08:14:31.329Z,97092.30
2018-03-23T08:15:36.630Z,97094.38
2018-03-23T08:16:42.032Z,97088.44
2018-03-23T08:17:47.714Z,97083.84
2018-03-23T08:18:53.059Z,97087.70
2018-03-23T08:19:58.823Z,97086.69
2018-03-23T08:21:04.227Z,97086.35
2018-03-23T08:22:09.447Z,97088.30
2018-03-23T08:23:14.845Z,97092.03
2018-03-23T08:24:20.626Z,97086.95
2018-03-23T08:25:25.934Z,97092.23
2018-03-23T08:26:32.657Z,97092.00
2018-03-23T08:27:38.275Z,97089.34
2018-03-23T08:28:43.746Z,97087.23
2018-03-23T08:29:49.043Z,97082.39
2018-03-23T08:30:54.490Z,97083.30
2018-03-23T08:32:00.846Z,97093.04
2018-03-23T08:33:06.999Z,97087.66
2018-03-23T08:34:12.255Z,97092.67
2018-03-23T08:35:17.756Z,97077.79
2018-03-23T08:36:23.089Z,97088.73
2018-03-23T08:37:29.502Z,97087.16
2018-03-23T08:38:34.798Z,97089.04
2018-03-23T08:39:40.592Z,97084.54
2018-03-23T08:40:46.090Z,97088.57
2018-03-23T08:41:52.312Z,97078.30
2018-03-23T08:42:57.896Z,97084.47
2018-03-23T08:44:03.356Z,97080.68
2018-03-23T08:45:09.075Z,97085.48
2018-03-23T08:46:14.719Z,97081.79
2018-03-23T08:47:20.078Z,97083.50
2018-03-23T08:48:25.301Z,97080.88
2018-03-23T08:49:30.754Z,97074.03
2018-03-23T08:50:35.972Z,97081.18
2018-03-23T08:51:41.989Z,97082.49
2018-03-23T08:52:47.639Z,97077.72
2018-03-23T08:53:52.799Z,97077.58
2018-03-23T08:54:58.290Z,97075.36
2018-03-23T08:56:03.622Z,97074.25
2018-03-23T08:57:08.825Z,97076.55
2018-03-23T08:58:14.042Z,97068.25
2018-03-23T08:59:19.540Z,97077.05
2018-03-23T09:00:24.826Z,97074.99
2018-03-23T09:01:30.061Z,97082.52
2018-03-23T09:02:35.198Z,97070.42
2018-03-23T09:03:40.523Z,97075.47
2018-03-23T09:04:45.676Z,97071.83
2018-03-23T09:05:51.948Z,97075.18
2018-03-23T09:06:57.412Z,97068.41
2018-03-23T09:08:02.545Z,97068.47
2018-03-23T09:09:09.132Z,97071.06
2018-03-23T09:10:14.563Z,97069.93
2018-03-23T09:11:20.322Z,97068.22
2018-03-23T09:12:25.592Z,97075.17
2018-03-23T09:13:30.836Z,97069.95
2018-03-23T09:14:36.226Z,97068.13
2018-03-23T09:15:41.484Z,97067.09
2018-03-23T09:16:46.615Z,97070.58
2018-03-23T09:17:52.296Z,97067.27
2018-03-23T09:18:57.576Z,97066.77
2018-03-23T09:20:02.904Z,97062.62
2018-03-23T09:21:08.216Z,97063.52
2018-03-23T09:22:14.644Z,97064.32
2018-03-23T09:23:19.939Z,97055.64
2018-03-23T09:24:25.463Z,97062.30
2018-03-23T09:25:30.665Z,97063.22
2018-03-23T09:26:35.926Z,97051.52
2018-03-23T09:27:41.561Z,97054.97
2018-03-23T09:28:48.894Z,97054.83
2018-03-23T09:29:55.035Z,97051.66
2018-03-23T09:31:00.586Z,97045.16
2018-03-23T09:32:05.888Z,97054.34
2018-03-23T09:33:11.280Z,97038.71
2018-03-23T09:34:17.505Z,97047.64
2018-03-23T09:35:22.890Z,97045.26
2018-03-23T09:36:28.269Z,97041.20
2018-03-23T09:37:34.408Z,97045.28
2018-03-23T09:38:39.613Z,97045.02
2018-03-23T09:39:46.024Z,97041.22
2018-03-23T09:40:51.178Z,97034.04
2018-03-23T09:41:56.482Z,97036.35
2018-03-23T09:43:01.890Z,97040.01
2018-03-23T09:44:07.340Z,97037.00
2018-03-23T09:45:13.641Z,97041.14
2018-03-23T09:46:18.945Z,97037.38
2018-03-23T09:47:24.183Z,97040.12
2018-03-23T09:48:29.539Z,97041.47
2018-03-23T09:49:35.513Z,97040.52
2018-03-23T09:50:40.795Z,97037.95
2018-03-23T09:51:46.063Z,97039.27
2018-03-23T09:52:51.166Z,97039.34
2018-03-23T09:53:56.341Z,97038.50
2018-03-23T09:55:01.536Z,97034.06
2018-03-23T09:56:07.028Z,97042.39
2018-03-23T09:57:12.255Z,97037.45
2018-03-23T09:58:18.116Z,97036.86
2018-03-23T09:59:23.191Z,97036.67
2018-03-23T10:00:28.415Z,97033.57
2018-03-23T10:01:33.630Z,97032.36
2018-03-23T10:02:39.152Z,97032.42
2018-03-23T10:03:44.413Z,97030.97
2018-03-23T10:04:49.538Z,97027.13
2018-03-23T10:05:54.548Z,97031.59
2018-03-23T10:06:59.631Z,97032.36
2018-03-23T10:08:04.780Z,97027.56
2018-03-23T10:09:10.607Z,97026.91
2018-03-23T10:10:15.818Z,97020.83
2018-03-23T10:11:21.036Z,97023.42
2018-03-23T10:12:26.277Z,97017.75
2018-03-23T10:13:31.500Z,97017.46
2018-03-23T10:14:36.695Z,97020.61
2018-03-23T10:15:42.278Z,97019.88
2018-03-23T10:16:48.485Z,97019.63
2018-03-23T10:17:53.620Z,97014.42
2018-03-23T10:18:58.780Z,97013.55
2018-03-23T10:20:03.870Z,97013.00
2018-03-23T10:21:09.067Z,97006.59
2018-03-23T10:22:14.647Z,97011.61
2018-03-23T10:23:19.886Z,97006.05
2018-03-23T10:24:24.905Z,97011.53
2018-03-23T10:25:30.064Z,97010.52
2018-03-23T10:26:35.244Z,97009.59
2018-03-23T10:27:40.378Z,97010.06
2018-03-23T10:28:45.891Z,97014.73
2018-03-23T10:29:51.008Z,97010.20
2018-03-23T10:30:55.962Z,97011.05
2018-03-23T10:32:01.049Z,97008.73
2018-03-23T10:33:06.374Z,97006.84
2018-03-23T10:34:11.474Z,97004.54
2018-03-23T10:35:16.838Z,97007.12
2018-03-23T10:36:21.944Z,97008.56
2018-03-23T10:37:26.887Z,97007.92
2018-03-23T10:38:31.788Z,97003.27
2018-03-23T10:39:36.828Z,96998.61
2018-03-23T10:40:41.813Z,96999.82
2018-03-23T10:41:47.783Z,97001.90
2018-03-23T10:42:52.894Z,97002.51
2018-03-23T10:43:58.027Z,97001.80
2018-03-23T10:45:03.125Z,97002.81
2018-03-23T10:46:08.349Z,97000.09
2018-03-23T10:47:13.576Z,96994.30
2018-03-23T10:48:19.177Z,96997.77
2018-03-23T10:49:24.345Z,96994.80
2018-03-23T10:50:29.701Z,96991.52
2018-03-23T10:51:34.976Z,96995.12
2018-03-23T10:52:40.115Z,96993.00
2018-03-23T10:53:45.802Z,96986.39
2018-03-23T10:54:51.264Z,96991.77
2018-03-23T10:55:56.242Z,96987.41
2018-03-23T10:57:01.540Z,96989.11
2018-03-23T10:58:06.932Z,96983.92
2018-03-23T10:59:12.046Z,96981.11
2018-03-23T11:00:17.606Z,96974.58
2018-03-23T11:01:43.883Z,96982.37
2018-03-23T11:02:52.826Z,96985.27
2018-03-23T11:03:57.895Z,96973.70
2018-03-23T11:05:03.749Z,96976.95
2018-03-23T11:06:09.924Z,96976.39
2018-03-23T11:07:15.222Z,96977.48
2018-03-23T11:08:21.445Z,96973.59
2018-03-23T11:09:26.560Z,96969.02
2018-03-23T11:10:31.553Z,96971.33
2018-03-23T11:11:36.817Z,96970.16
2018-03-23T11:12:41.998Z,96972.77
2018-03-23T11:13:48.513Z,96970.56
2018-03-23T11:14:53.751Z,96968.16
2018-03-23T11:16:00.101Z,96964.96
2018-03-23T11:17:05.611Z,96963.25
2018-03-23T11:18:10.976Z,96960.23
2018-03-23T11:19:17.197Z,96960.11
2018-03-23T11:20:24.253Z,96958.31
2018-03-23T11:21:29.724Z,96959.53
2018-03-23T11:22:35.434Z,96960.29
2018-03-23T11:23:40.514Z,96956.50
2018-03-23T11:24:45.575Z,96951.59
2018-03-23T11:25:50.796Z,96952.70
2018-03-23T11:26:56.357Z,96950.49
2018-03-23T11:28:01.570Z,96953.92
2018-03-23T11:29:07.248Z,96956.02
2018-03-23T11:30:12.346Z,96959.41
2018-03-23T11:31:17.372Z,96961.34
2018-03-23T11:32:23.018Z,96953.94
2018-03-23T11:33:28.619Z,96952.47
2018-03-23T11:34:33.691Z,96954.98
2018-03-23T11:35:38.797Z,96960.75
2018-03-23T11:36:43.893Z,96957.09
2018-03-23T11:37:48.907Z,96958.91
2018-03-23T11:38:56.397Z,96953.13
2018-03-23T11:40:01.651Z,96957.38
2018-03-23T11:41:06.742Z,96953.97
2018-03-23T11:42:11.833Z,96952.32
2018-03-23T11:43:16.896Z,96954.72
2018-03-23T11:44:22.812Z,96943.75
2018-03-23T11:45:28.342Z,96943.63
2018-03-23T11:46:33.532Z,96946.89
2018-03-23T11:47:38.271Z,96944.84
2018-03-23T11:48:43.122Z,96942.18
2018-03-23T11:49:48.441Z,96936.03
2018-03-23T11:50:53.520Z,96935.03
2018-03-23T11:51:59.177Z,96939.55
2018-03-23T11:53:04.197Z,96933.01
2018-03-23T11:54:09.343Z,96943.12
2018-03-23T11:55:14.374Z,96929.73
2018-03-23T11:56:19.570Z,96927.80
2018-03-23T11:57:24.632Z,96930.35
2018-03-23T11:58:30.210Z,96927.80
2018-03-23T11:59:35.612Z,96930.64
2018-03-23T12:00:40.895Z,96923.31
2018-03-23T12:01:45.980Z,96918.89
2018-03-23T12:02:51.152Z,96919.88
2018-03-23T12:03:56.530Z,96925.95
2018-03-23T12:05:02.068Z,96919.27
2018-03-23T12:06:07.228Z,96911.14
2018-03-23T12:07:12.344Z,96918.86
2018-03-23T12:08:18.128Z,96919.03
2018-03-23T12:09:23.179Z,96914.75
2018-03-23T12:10:28.416Z,96920.45
2018-03-23T12:11:34.864Z,96910.38
2018-03-23T12:12:40.098Z,96911.01
2018-03-23T12:13:45.139Z,96911.94
2018-03-23T12:14:50.229Z,96911.02
2018-03-23T12:15:55.224Z,96905.52
2018-03-23T12:17:00.171Z,96905.65
2018-03-23T12:18:05.706Z,96906.72
2018-03-23T12:19:10.974Z,96900.52
2018-03-23T12:20:16.574Z,96893.94
2018-03-23T12:21:21.679Z,96896.56
2018-03-23T12:22:26.867Z,96900.71
2018-03-23T12:23:31.866Z,96899.30
2018-03-23T12:24:37.268Z,96897.58
2018-03-23T12:25:42.229Z,96895.92
2018-03-23T12:26:47.290Z,96895.13
2018-03-23T12:27:52.327Z,96893.13
2018-03-23T12:28:57.238Z,96892.20
2018-03-23T12:30:02.211Z,96893.06
2018-03-23T12:31:07.456Z,96886.98
2018-03-23T12:32:12.548Z,96881.50
2018-03-23T12:33:17.460Z,96873.30
2018-03-23T12:34:22.731Z,96880.55
2018-03-23T12:35:27.652Z,96873.95
2018-03-23T12:36:33.559Z,96877.63
2018-03-23T12:37:39.216Z,96870.60
2018-03-23T12:38:44.432Z,96872.30
2018-03-23T12:39:49.415Z,96871.72
2018-03-23T12:40:54.570Z,96871.11
2018-03-23T12:41:59.566Z,96872.02
2018-03-23T12:43:04.712Z,96867.48
2018-03-23T12:44:10.115Z,96866.52
2018-03-23T12:45:15.406Z,96863.97
2018-03-23T12:46:20.399Z,96864.80
2018-03-23T12:47:25.270Z,96854.80
2018-03-23T12:48:30.274Z,96855.38
2018-03-23T12:49:35.307Z,96850.56